sensor_id;sensor_type;location;lat;lon;timestamp;pressure;altitude;pressure_sealevel;temperature;humidity
21821;BME280;11073;48.586;12.066;2023-07-13T00:01:16;96383.66;;;21.16;71.69
21821;BME280;11073;48.586;12.066;2023-07-13T00:03:45;96395.06;;;21.24;71.74
21821;BME280;11073;48.586;12.066;2023-07-13T00:06:14;96387.31;;;21.26;71.47
21821;BME280;11073;48.586;12.066;2023-07-13T00:08:44;96388.06;;;21.31;71.56
21821;BME280;11073;48.586;12.066;2023-07-13T00:11:13;96377.44;;;21.25;71.43
21821;BME280;11073;48.586;12.066;2023-07-13T00:13:42;96388.13;;;21.26;71.68
21821;BME280;11073;48.586;12.066;2023-07-13T00:16:11;96392.31;;;21.24;71.38
21821;BME280;11073;48.586;12.066;2023-07-13T00:18:43;96385.47;;;21.21;72.17
21821;BME280;11073;48.586;12.066;2023-07-13T00:21:12;96373.66;;;21.20;72.03
21821;BME280;11073;48.586;12.066;2023-07-13T00:23:42;96366.75;;;21.23;71.90
21821;BME280;11073;48.586;12.066;2023-07-13T00:26:11;96360.22;;;21.19;71.92
21821;BME280;11073;48.586;12.066;2023-07-13T00:28:41;96334.63;;;21.18;71.83
21821;BME280;11073;48.586;12.066;2023-07-13T00:31:12;96353.78;;;21.24;71.95
21821;BME280;11073;48.586;12.066;2023-07-13T00:33:44;96370.19;;;21.29;72.24
21821;BME280;11073;48.586;12.066;2023-07-13T00:36:14;96365.50;;;21.29;71.98
21821;BME280;11073;48.586;12.066;2023-07-13T00:38:43;96367.34;;;21.20;72.16
21821;BME280;11073;48.586;12.066;2023-07-13T00:41:12;96384.56;;;21.26;72.12
21821;BME280;11073;48.586;12.066;2023-07-13T00:43:40;96370.09;;;21.20;72.27
21821;BME280;11073;48.586;12.066;2023-07-13T00:46:22;96382.22;;;21.19;72.33
21821;BME280;11073;48.586;12.066;2023-07-13T00:48:54;96384.66;;;21.20;72.85
21821;BME280;11073;48.586;12.066;2023-07-13T00:51:29;96357.47;;;21.05;72.46
21821;BME280;11073;48.586;12.066;2023-07-13T00:54:03;96379.38;;;21.24;72.98
21821;BME280;11073;48.586;12.066;2023-07-13T00:56:33;96374.69;;;21.25;72.96
21821;BME280;11073;48.586;12.066;2023-07-13T00:59:05;96380.69;;;21.13;73.01
21821;BME280;11073;48.586;12.066;2023-07-13T01:01:35;96393.56;;;21.17;72.90
21821;BME280;11073;48.586;12.066;2023-07-13T01:04:05;96377.53;;;21.19;73.29
21821;BME280;11073;48.586;12.066;2023-07-13T01:06:36;96384.66;;;21.20;72.97
21821;BME280;11073;48.586;12.066;2023-07-13T01:09:06;96378.88;;;21.08;73.35
21821;BME280;11073;48.586;12.066;2023-07-13T01:11:36;96379.38;;;21.10;73.48
21821;BME280;11073;48.586;12.066;2023-07-13T01:14:05;96391.22;;;21.11;73.67
21821;BME280;11073;48.586;12.066;2023-07-13T01:16:36;96381.00;;;21.11;73.42
21821;BME280;11073;48.586;12.066;2023-07-13T01:19:22;96379.38;;;21.10;73.48
21821;BME280;11073;48.586;12.066;2023-07-13T01:22:06;96385.59;;;21.16;73.93
21821;BME280;11073;48.586;12.066;2023-07-13T01:24:36;96387.72;;;21.19;73.45
21821;BME280;11073;48.586;12.066;2023-07-13T01:27:06;96382.53;;;21.17;73.56
21821;BME280;11073;48.586;12.066;2023-07-13T01:29:37;96389.34;;;21.20;73.79
21821;BME280;11073;48.586;12.066;2023-07-13T01:32:12;96371.72;;;21.21;73.58
21821;BME280;11073;48.586;12.066;2023-07-13T01:34:41;96379.97;;;21.21;73.93
21821;BME280;11073;48.586;12.066;2023-07-13T01:37:12;96359.06;;;21.20;73.44
21821;BME280;11073;48.586;12.066;2023-07-13T01:39:41;96343.28;;;21.12;73.56
21821;BME280;11073;48.586;12.066;2023-07-13T01:42:10;96369.91;;;21.30;73.57
21821;BME280;11073;48.586;12.066;2023-07-13T01:44:38;96338.00;;;21.15;73.33
21821;BME280;11073;48.586;12.066;2023-07-13T01:47:07;96357.25;;;21.29;73.59
21821;BME280;11073;48.586;12.066;2023-07-13T01:49:36;96355.63;;;21.28;73.39
21821;BME280;11073;48.586;12.066;2023-07-13T01:52:06;96364.97;;;21.27;73.34
21821;BME280;11073;48.586;12.066;2023-07-13T01:54:36;96360.41;;;21.23;73.77
21821;BME280;11073;48.586;12.066;2023-07-13T01:57:05;96344.44;;;21.11;73.77
21821;BME280;11073;48.586;12.066;2023-07-13T01:59:34;96366.34;;;21.16;73.95
21821;BME280;11073;48.586;12.066;2023-07-13T02:02:05;96360.63;;;21.12;73.88
21821;BME280;11073;48.586;12.066;2023-07-13T02:04:34;96362.78;;;21.15;74.05
21821;BME280;11073;48.586;12.066;2023-07-13T02:07:04;96364.91;;;21.18;74.20
21821;BME280;11073;48.586;12.066;2023-07-13T02:09:32;96358.75;;;21.21;74.16
21821;BME280;11073;48.586;12.066;2023-07-13T02:12:04;96373.56;;;21.26;74.25
21821;BME280;11073;48.586;12.066;2023-07-13T02:14:33;96359.41;;;21.18;74.15
21821;BME280;11073;48.586;12.066;2023-07-13T02:17:02;96381.81;;;21.26;73.87
21821;BME280;11073;48.586;12.066;2023-07-13T02:19:31;96386.72;;;21.15;74.41
21821;BME280;11073;48.586;12.066;2023-07-13T02:22:00;96387.97;;;21.09;74.45
21821;BME280;11073;48.586;12.066;2023-07-13T02:24:29;96385.50;;;21.07;74.98
21821;BME280;11073;48.586;12.066;2023-07-13T02:26:58;96387.97;;;21.09;75.03
21821;BME280;11073;48.586;12.066;2023-07-13T02:29:28;96376.81;;;21.14;74.98
21821;BME280;11073;48.586;12.066;2023-07-13T02:31:57;96367.66;;;21.05;75.21
21821;BME280;11073;48.586;12.066;2023-07-13T02:34:25;96349.75;;;20.93;74.80
21821;BME280;11073;48.586;12.066;2023-07-13T02:36:54;96382.03;;;21.15;75.10
21821;BME280;11073;48.586;12.066;2023-07-13T02:39:23;96371.72;;;21.07;74.45
21821;BME280;11073;48.586;12.066;2023-07-13T02:41:52;96364.81;;;21.10;74.77
21821;BME280;11073;48.586;12.066;2023-07-13T02:44:21;96387.09;;;21.22;74.77
21821;BME280;11073;48.586;12.066;2023-07-13T02:46:51;96386.00;;;21.23;74.54
21821;BME280;11073;48.586;12.066;2023-07-13T02:49:20;96395.88;;;21.24;74.74
21821;BME280;11073;48.586;12.066;2023-07-13T02:51:49;96392.09;;;21.20;74.73
21821;BME280;11073;48.586;12.066;2023-07-13T02:54:17;96392.25;;;21.15;74.59
21821;BME280;11073;48.586;12.066;2023-07-13T02:56:46;96397.94;;;21.18;74.76
21821;BME280;11073;48.586;12.066;2023-07-13T02:59:15;96386.91;;;21.18;74.32
21821;BME280;11073;48.586;12.066;2023-07-13T03:01:44;96388.84;;;21.18;74.56
21821;BME280;11073;48.586;12.066;2023-07-13T03:04:14;96376.81;;;21.14;74.26
21821;BME280;11073;48.586;12.066;2023-07-13T03:06:47;96402.41;;;21.28;73.95
21821;BME280;11073;48.586;12.066;2023-07-13T03:09:16;96405.69;;;21.30;74.28
21821;BME280;11073;48.586;12.066;2023-07-13T03:11:53;96409.44;;;21.34;74.22
21821;BME280;11073;48.586;12.066;2023-07-13T03:14:30;96402.53;;;21.37;73.87
21821;BME280;11073;48.586;12.066;2023-07-13T03:17:01;96394.56;;;21.35;74.09
21821;BME280;11073;48.586;12.066;2023-07-13T03:19:34;96409.44;;;21.34;73.63
21821;BME280;11073;48.586;12.066;2023-07-13T03:22:04;96414.25;;;21.29;73.93
21821;BME280;11073;48.586;12.066;2023-07-13T03:24:35;96425.53;;;21.27;73.87
21821;BME280;11073;48.586;12.066;2023-07-13T03:27:07;96421.09;;;21.31;74.07
21821;BME280;11073;48.586;12.066;2023-07-13T03:29:40;96409.03;;;21.27;73.96
21821;BME280;11073;48.586;12.066;2023-07-13T03:32:09;96389.47;;;21.15;73.62
21821;BME280;11073;48.586;12.066;2023-07-13T03:34:39;96406.59;;;21.26;73.99
21821;BME280;11073;48.586;12.066;2023-07-13T03:37:08;96420.56;;;21.29;74.13
21821;BME280;11073;48.586;12.066;2023-07-13T03:39:37;96423.63;;;21.28;73.61
21821;BME280;11073;48.586;12.066;2023-07-13T03:42:06;96416.78;;;21.25;73.71
21821;BME280;11073;48.586;12.066;2023-07-13T03:44:35;96416.41;;;21.32;73.67
21821;BME280;11073;48.586;12.066;2023-07-13T03:47:04;96417.38;;;21.22;73.61
21821;BME280;11073;48.586;12.066;2023-07-13T03:49:36;96426.47;;;21.23;73.78
21821;BME280;11073;48.586;12.066;2023-07-13T03:52:07;96411.38;;;21.06;74.17
21821;BME280;11073;48.586;12.066;2023-07-13T03:54:36;96428.53;;;21.17;74.04
21821;BME280;11073;48.586;12.066;2023-07-13T03:57:05;96428.53;;;21.17;74.38
21821;BME280;11073;48.586;12.066;2023-07-13T03:59:36;96424.22;;;21.11;74.22
21821;BME280;11073;48.586;12.066;2023-07-13T04:02:05;96436.97;;;21.07;74.66
21821;BME280;11073;48.586;12.066;2023-07-13T04:04:34;96436.16;;;21.06;74.67
21821;BME280;11073;48.586;12.066;2023-07-13T04:07:03;96431.69;;;21.10;74.55
21821;BME280;11073;48.586;12.066;2023-07-13T04:09:33;96428.63;;;21.12;74.61
21821;BME280;11073;48.586;12.066;2023-07-13T04:12:03;96426.09;;;21.15;74.60
21821;BME280;11073;48.586;12.066;2023-07-13T04:14:32;96436.78;;;21.17;74.67
21821;BME280;11073;48.586;12.066;2023-07-13T04:17:01;96439.03;;;21.15;74.57
21821;BME280;11073;48.586;12.066;2023-07-13T04:19:30;96433.22;;;21.16;74.12
21821;BME280;11073;48.586;12.066;2023-07-13T04:21:59;96428.53;;;21.17;74.28
21821;BME280;11073;48.586;12.066;2023-07-13T04:24:28;96422.59;;;21.10;74.24
21821;BME280;11073;48.586;12.066;2023-07-13T04:26:58;96435.16;;;21.16;74.19
21821;BME280;11073;48.586;12.066;2023-07-13T04:29:28;96434.34;;;21.15;74.23
21821;BME280;11073;48.586;12.066;2023-07-13T04:31:57;96440.03;;;21.19;74.30
21821;BME280;11073;48.586;12.066;2023-07-13T04:34:26;96452.66;;;21.20;73.89
21821;BME280;11073;48.586;12.066;2023-07-13T04:36:55;96442.28;;;21.17;74.07
21821;BME280;11073;48.586;12.066;2023-07-13T04:39:24;96421.78;;;20.96;73.92
21821;BME280;11073;48.586;12.066;2023-07-13T04:41:53;96459.09;;;21.15;74.09
21821;BME280;11073;48.586;12.066;2023-07-13T04:44:24;96446.03;;;21.07;73.47
21821;BME280;11073;48.586;12.066;2023-07-13T04:46:53;96463.56;;;21.11;73.83
21821;BME280;11073;48.586;12.066;2023-07-13T04:49:21;96454.69;;;21.14;73.59
21821;BME280;11073;48.586;12.066;2023-07-13T04:51:50;96461.63;;;21.12;73.04
21821;BME280;11073;48.586;12.066;2023-07-13T04:54:19;96450.22;;;21.05;72.75
21821;BME280;11073;48.586;12.066;2023-07-13T04:56:47;96435.03;;;20.93;72.82
21821;BME280;11073;48.586;12.066;2023-07-13T04:59:16;96467.66;;;21.14;72.59
21821;BME280;11073;48.586;12.066;2023-07-13T05:01:46;96478.47;;;21.10;72.43
21821;BME280;11073;48.586;12.066;2023-07-13T05:04:15;96462.44;;;20.99;72.28
21821;BME280;11073;48.586;12.066;2023-07-13T05:06:43;96487.03;;;21.09;71.79
21821;BME280;11073;48.586;12.066;2023-07-13T05:09:12;96482.84;;;21.11;71.50
21821;BME280;11073;48.586;12.066;2023-07-13T05:11:41;96477.25;;;21.03;71.47
21821;BME280;11073;48.586;12.066;2023-07-13T05:14:10;96480.00;;;21.03;71.42
21821;BME280;11073;48.586;12.066;2023-07-13T05:16:38;96477.25;;;21.03;71.62
21821;BME280;11073;48.586;12.066;2023-07-13T05:19:08;96479.19;;;21.16;70.86
21821;BME280;11073;48.586;12.066;2023-07-13T05:21:37;96486.81;;;21.19;70.49
21821;BME280;11073;48.586;12.066;2023-07-13T05:24:05;96473.56;;;21.07;70.72
21821;BME280;11073;48.586;12.066;2023-07-13T05:26:51;96495.38;;;21.17;70.28
21821;BME280;11073;48.586;12.066;2023-07-13T05:29:20;96493.53;;;21.13;70.23
21821;BME280;11073;48.586;12.066;2023-07-13T05:31:49;96497.91;;;21.14;70.22
21821;BME280;11073;48.586;12.066;2023-07-13T05:34:19;96495.16;;;21.14;70.34
21821;BME280;11073;48.586;12.066;2023-07-13T05:36:47;96502.31;;;21.15;70.30
21821;BME280;11073;48.586;12.066;2023-07-13T05:39:16;96504.25;;;21.14;69.92
21821;BME280;11073;48.586;12.066;2023-07-13T05:41:45;96484.69;;;21.02;69.70
21821;BME280;11073;48.586;12.066;2023-07-13T05:44:14;96507.22;;;21.18;69.75
21821;BME280;11073;48.586;12.066;2023-07-13T05:46:43;96498.44;;;21.16;69.67
21821;BME280;11073;48.586;12.066;2023-07-13T05:49:11;96505.59;;;21.17;69.29
21821;BME280;11073;48.586;12.066;2023-07-13T05:51:41;96511.69;;;21.14;68.83
21821;BME280;11073;48.586;12.066;2023-07-13T05:54:09;96507.59;;;21.11;68.47
21821;BME280;11073;48.586;12.066;2023-07-13T05:56:38;96496.19;;;21.04;68.40
21821;BME280;11073;48.586;12.066;2023-07-13T05:59:07;96503.31;;;21.05;68.23
21821;BME280;11073;48.586;12.066;2023-07-13T06:01:36;96499.66;;;21.10;68.46
21821;BME280;11073;48.586;12.066;2023-07-13T06:04:04;96505.09;;;21.15;67.76
21821;BME280;11073;48.586;12.066;2023-07-13T06:06:33;96519.03;;;21.18;68.06
21821;BME280;11073;48.586;12.066;2023-07-13T06:09:03;96507.31;;;21.13;67.27
21821;BME280;11073;48.586;12.066;2023-07-13T06:11:31;96515.56;;;21.13;67.34
21821;BME280;11073;48.586;12.066;2023-07-13T06:14:00;96517.72;;;21.16;67.11
21821;BME280;11073;48.586;12.066;2023-07-13T06:16:28;96515.56;;;21.13;66.64
21821;BME280;11073;48.586;12.066;2023-07-13T06:18:57;96467.41;;;20.83;66.38
21821;BME280;11073;48.586;12.066;2023-07-13T06:21:25;96536.88;;;21.21;65.90
21821;BME280;11073;48.586;12.066;2023-07-13T06:23:53;96534.44;;;21.19;66.00
21821;BME280;11073;48.586;12.066;2023-07-13T06:26:23;96536.78;;;21.26;65.47
21821;BME280;11073;48.586;12.066;2023-07-13T06:28:52;96540.44;;;21.21;64.97
21821;BME280;11073;48.586;12.066;2023-07-13T06:31:21;96539.25;;;21.28;65.22
21821;BME280;11073;48.586;12.066;2023-07-13T06:33:49;96544.16;;;21.31;64.69
21821;BME280;11073;48.586;12.066;2023-07-13T06:36:18;96548.47;;;21.37;64.62
21821;BME280;11073;48.586;12.066;2023-07-13T06:38:46;96548.03;;;21.43;64.37
21821;BME280;11073;48.586;12.066;2023-07-13T06:41:14;96556.09;;;21.54;63.99
21821;BME280;11073;48.586;12.066;2023-07-13T06:43:44;96548.44;;;21.64;64.05
21821;BME280;11073;48.586;12.066;2023-07-13T06:46:13;96550.59;;;21.67;63.83
21821;BME280;11073;48.586;12.066;2023-07-13T06:48:41;96551.81;;;21.75;63.42
21821;BME280;11073;48.586;12.066;2023-07-13T06:51:10;96557.41;;;21.70;62.84
21821;BME280;11073;48.586;12.066;2023-07-13T06:53:39;96560.19;;;21.70;62.55
21821;BME280;11073;48.586;12.066;2023-07-13T06:56:08;96548.44;;;21.64;61.59
21821;BME280;11073;48.586;12.066;2023-07-13T06:58:37;96553.53;;;21.71;60.94
21821;BME280;11073;48.586;12.066;2023-07-13T07:01:07;96551.19;;;21.78;60.96
21821;BME280;11073;48.586;12.066;2023-07-13T07:03:35;96549.25;;;21.79;60.41
21821;BME280;11073;48.586;12.066;2023-07-13T07:06:12;96547.31;;;21.79;59.59
21821;BME280;11073;48.586;12.066;2023-07-13T07:08:42;96547.13;;;21.75;59.39
21821;BME280;11073;48.586;12.066;2023-07-13T07:11:13;96560.34;;;21.87;59.32
21821;BME280;11073;48.586;12.066;2023-07-13T07:13:41;96569.34;;;21.93;58.80
21821;BME280;11073;48.586;12.066;2023-07-13T07:16:12;96561.16;;;22.01;58.56
21821;BME280;11073;48.586;12.066;2023-07-13T07:18:40;96556.78;;;22.00;57.96
21821;BME280;11073;48.586;12.066;2023-07-13T07:21:09;96568.19;;;22.08;57.81
21821;BME280;11073;48.586;12.066;2023-07-13T07:23:38;96577.03;;;22.10;57.70
21821;BME280;11073;48.586;12.066;2023-07-13T07:26:07;96566.28;;;22.08;57.45
21821;BME280;11073;48.586;12.066;2023-07-13T07:28:37;96572.00;;;22.12;57.67
21821;BME280;11073;48.586;12.066;2023-07-13T07:31:09;96579.66;;;22.15;57.59
21821;BME280;11073;48.586;12.066;2023-07-13T07:33:42;96582.94;;;22.17;57.18
21821;BME280;11073;48.586;12.066;2023-07-13T07:36:11;96575.75;;;22.16;57.19
21821;BME280;11073;48.586;12.066;2023-07-13T07:38:43;96578.13;;;22.09;57.00
21821;BME280;11073;48.586;12.066;2023-07-13T07:41:12;96584.03;;;22.16;57.23
21821;BME280;11073;48.586;12.066;2023-07-13T07:43:44;96590.16;;;22.26;57.49
21821;BME280;11073;48.586;12.066;2023-07-13T07:46:12;96591.75;;;22.41;57.05
21821;BME280;11073;48.586;12.066;2023-07-13T07:48:43;96591.78;;;22.64;56.95
21821;BME280;11073;48.586;12.066;2023-07-13T07:51:12;96591.78;;;22.64;56.48
21821;BME280;11073;48.586;12.066;2023-07-13T07:53:40;96602.38;;;22.70;55.75
21821;BME280;11073;48.586;12.066;2023-07-13T07:56:09;96597.25;;;22.77;55.52
21821;BME280;11073;48.586;12.066;2023-07-13T07:58:41;96601.19;;;22.85;55.19
21821;BME280;11073;48.586;12.066;2023-07-13T08:01:13;96594.25;;;22.88;55.17
21821;BME280;11073;48.586;12.066;2023-07-13T08:03:45;96592.91;;;22.85;54.95
21821;BME280;11073;48.586;12.066;2023-07-13T08:06:17;96599.69;;;22.79;54.47
21821;BME280;11073;48.586;12.066;2023-07-13T08:08:49;96619.31;;;22.77;54.23
21821;BME280;11073;48.586;12.066;2023-07-13T08:11:20;96601.31;;;22.80;53.64
21821;BME280;11073;48.586;12.066;2023-07-13T08:13:52;96620.91;;;22.92;53.33
21821;BME280;11073;48.586;12.066;2023-07-13T08:16:22;96621.66;;;23.06;52.90
21821;BME280;11073;48.586;12.066;2023-07-13T08:18:52;96622.75;;;23.19;52.55
21821;BME280;11073;48.586;12.066;2023-07-13T08:21:21;96612.63;;;23.15;51.94
21821;BME280;11073;48.586;12.066;2023-07-13T08:23:50;96603.78;;;23.26;52.05
21821;BME280;11073;48.586;12.066;2023-07-13T08:26:18;96614.53;;;23.36;51.57
21821;BME280;11073;48.586;12.066;2023-07-13T08:28:47;96619.84;;;23.55;51.49
21821;BME280;11073;48.586;12.066;2023-07-13T08:31:15;96621.06;;;23.63;51.09
21821;BME280;11073;48.586;12.066;2023-07-13T08:33:44;96621.56;;;23.74;50.97
21821;BME280;11073;48.586;12.066;2023-07-13T08:36:14;96621.44;;;23.79;50.64
21821;BME280;11073;48.586;12.066;2023-07-13T08:38:43;96639.88;;;23.61;50.15
21821;BME280;11073;48.586;12.066;2023-07-13T08:41:14;96641.47;;;23.31;49.20
21821;BME280;11073;48.586;12.066;2023-07-13T08:43:49;96638.34;;;23.24;48.70
21821;BME280;11073;48.586;12.066;2023-07-13T08:46:23;96649.16;;;23.11;48.31
21821;BME280;11073;48.586;12.066;2023-07-13T08:48:57;96644.88;;;23.05;47.95
21821;BME280;11073;48.586;12.066;2023-07-13T08:51:34;96645.38;;;23.07;47.71
21821;BME280;11073;48.586;12.066;2023-07-13T08:54:10;96648.25;;;23.02;47.71
21821;BME280;11073;48.586;12.066;2023-07-13T08:56:40;96647.22;;;23.12;48.08
21821;BME280;11073;48.586;12.066;2023-07-13T08:59:12;96650.06;;;23.29;47.90
21821;BME280;11073;48.586;12.066;2023-07-13T09:01:58;96648.38;;;23.42;48.43
21821;BME280;11073;48.586;12.066;2023-07-13T09:04:30;96652.03;;;23.29;47.86
21821;BME280;11073;48.586;12.066;2023-07-13T09:07:06;96649.97;;;23.12;48.42
21821;BME280;11073;48.586;12.066;2023-07-13T09:09:50;96661.69;;;22.95;48.65
21821;BME280;11073;48.586;12.066;2023-07-13T09:12:27;96664.78;;;22.80;48.86
21821;BME280;11073;48.586;12.066;2023-07-13T09:15:01;96664.28;;;22.78;49.31
21821;BME280;11073;48.586;12.066;2023-07-13T09:17:36;96671.03;;;22.72;49.41
21821;BME280;11073;48.586;12.066;2023-07-13T09:20:14;96671.66;;;22.69;48.79
21821;BME280;11073;48.586;12.066;2023-07-13T09:22:47;96669.91;;;22.73;48.87
21821;BME280;11073;48.586;12.066;2023-07-13T09:25:24;96659.19;;;22.71;48.11
21821;BME280;11073;48.586;12.066;2023-07-13T09:27:59;96669.63;;;22.74;47.99
21821;BME280;11073;48.586;12.066;2023-07-13T09:30:34;96656.63;;;22.75;48.17
21821;BME280;11073;48.586;12.066;2023-07-13T09:33:06;96663.63;;;22.81;48.03
21821;BME280;11073;48.586;12.066;2023-07-13T09:35:36;96659.16;;;22.85;48.01
21821;BME280;11073;48.586;12.066;2023-07-13T09:38:13;96668.53;;;22.98;48.13
21821;BME280;11073;48.586;12.066;2023-07-13T09:40:49;96666.47;;;23.03;48.29
21821;BME280;11073;48.586;12.066;2023-07-13T09:43:22;96663.78;;;23.12;48.13
21821;BME280;11073;48.586;12.066;2023-07-13T09:45:51;96666.41;;;23.17;48.04
21821;BME280;11073;48.586;12.066;2023-07-13T09:48:21;96670.91;;;23.35;48.26
21821;BME280;11073;48.586;12.066;2023-07-13T09:50:54;96665.13;;;23.46;48.14
21821;BME280;11073;48.586;12.066;2023-07-13T09:53:30;96674.69;;;23.62;47.35
21821;BME280;11073;48.586;12.066;2023-07-13T09:55:59;96680.50;;;23.60;47.04
21821;BME280;11073;48.586;12.066;2023-07-13T09:58:30;96675.06;;;23.69;46.91
21821;BME280;11073;48.586;12.066;2023-07-13T10:01:02;96673.47;;;23.77;46.74
21821;BME280;11073;48.586;12.066;2023-07-13T10:03:36;96676.06;;;23.82;46.22
21821;BME280;11073;48.586;12.066;2023-07-13T10:06:12;96671.94;;;23.62;45.67
21821;BME280;11073;48.586;12.066;2023-07-13T10:08:44;96679.94;;;23.72;45.65
21821;BME280;11073;48.586;12.066;2023-07-13T10:11:18;96667.19;;;23.93;45.32
21821;BME280;11073;48.586;12.066;2023-07-13T10:13:51;96671.00;;;24.06;45.24
21821;BME280;11073;48.586;12.066;2023-07-13T10:16:22;96673.56;;;24.42;44.89
21821;BME280;11073;48.586;12.066;2023-07-13T10:18:54;96678.03;;;24.87;44.63
21821;BME280;11073;48.586;12.066;2023-07-13T10:21:31;96685.38;;;25.17;43.74
21821;BME280;11073;48.586;12.066;2023-07-13T10:24:11;96668.59;;;25.22;43.11
21821;BME280;11073;48.586;12.066;2023-07-13T10:26:46;96668.44;;;25.10;42.85
21821;BME280;11073;48.586;12.066;2023-07-13T10:29:16;96677.91;;;25.09;42.71
21821;BME280;11073;48.586;12.066;2023-07-13T10:31:46;96667.28;;;25.20;42.55
21821;BME280;11073;48.586;12.066;2023-07-13T10:34:15;96670.41;;;25.10;42.20
21821;BME280;11073;48.586;12.066;2023-07-13T10:36:47;96665.47;;;25.41;42.05
21821;BME280;11073;48.586;12.066;2023-07-13T10:39:20;96672.03;;;26.01;41.25
21821;BME280;11073;48.586;12.066;2023-07-13T10:41:53;96663.16;;;26.16;40.59
21821;BME280;11073;48.586;12.066;2023-07-13T10:44:26;96677.88;;;26.08;40.00
21821;BME280;11073;48.586;12.066;2023-07-13T10:46:58;96666.66;;;25.96;39.51
21821;BME280;11073;48.586;12.066;2023-07-13T10:49:28;96671.03;;;26.35;39.32
21821;BME280;11073;48.586;12.066;2023-07-13T10:51:58;96676.28;;;26.87;38.72
21821;BME280;11073;48.586;12.066;2023-07-13T10:54:31;96687.69;;;27.15;37.91
21821;BME280;11073;48.586;12.066;2023-07-13T10:57:14;96672.56;;;27.04;37.30
21821;BME280;11073;48.586;12.066;2023-07-13T10:59:49;96673.34;;;27.13;37.54
21821;BME280;11073;48.586;12.066;2023-07-13T11:02:41;96670.63;;;27.25;36.73
21821;BME280;11073;48.586;12.066;2023-07-13T11:05:25;96671.44;;;27.26;36.39
21821;BME280;11073;48.586;12.066;2023-07-13T11:08:03;96675.78;;;27.14;35.85
21821;BME280;11073;48.586;12.066;2023-07-13T11:10:52;96674.34;;;26.87;35.55
21821;BME280;11073;48.586;12.066;2023-07-13T11:16:37;96668.22;;;27.36;35.01
21821;BME280;11073;48.586;12.066;2023-07-13T11:19:27;96668.41;;;27.52;34.18
21821;BME280;11073;48.586;12.066;2023-07-13T11:22:10;96658.94;;;27.53;34.15
21821;BME280;11073;48.586;12.066;2023-07-13T11:25:00;96669.09;;;27.82;34.07
21821;BME280;11073;48.586;12.066;2023-07-13T11:27:42;96667.75;;;28.24;33.60
21821;BME280;11073;48.586;12.066;2023-07-13T11:30:31;96669.50;;;28.53;33.39
21821;BME280;11073;48.586;12.066;2023-07-13T11:33:10;96677.16;;;28.69;33.06
21821;BME280;11073;48.586;12.066;2023-07-13T11:35:45;96667.66;;;28.70;32.72
21821;BME280;11073;48.586;12.066;2023-07-13T11:38:18;96679.97;;;28.44;32.96
21821;BME280;11073;48.586;12.066;2023-07-13T11:40:48;96673.66;;;28.23;32.80
21821;BME280;11073;48.586;12.066;2023-07-13T11:43:23;96657.78;;;28.72;33.13
21821;BME280;11073;48.586;12.066;2023-07-13T11:45:53;96676.75;;;29.19;33.04
21821;BME280;11073;48.586;12.066;2023-07-13T11:48:25;96670.94;;;29.40;32.51
21821;BME280;11073;48.586;12.066;2023-07-13T11:50:57;96669.00;;;29.00;32.34
21821;BME280;11073;48.586;12.066;2023-07-13T11:53:29;96678.22;;;29.29;32.41
21821;BME280;11073;48.586;12.066;2023-07-13T11:56:02;96676.88;;;29.51;32.04
21821;BME280;11073;48.586;12.066;2023-07-13T11:58:32;96675.66;;;29.64;32.40
21821;BME280;11073;48.586;12.066;2023-07-13T12:01:03;96666.06;;;29.93;31.63
21821;BME280;11073;48.586;12.066;2023-07-13T12:03:34;96664.81;;;30.06;31.53
21821;BME280;11073;48.586;12.066;2023-07-13T12:06:05;96659.69;;;30.24;31.26
21821;BME280;11073;48.586;12.066;2023-07-13T12:08:38;96662.53;;;29.96;30.89
21821;BME280;11073;48.586;12.066;2023-07-13T12:11:15;96649.22;;;29.89;30.56
21821;BME280;11073;48.586;12.066;2023-07-13T12:13:46;96660.59;;;30.12;30.56
21821;BME280;11073;48.586;12.066;2023-07-13T12:16:21;96659.50;;;30.01;30.31
21821;BME280;11073;48.586;12.066;2023-07-13T12:18:52;96637.16;;;30.01;30.63
21821;BME280;11073;48.586;12.066;2023-07-13T12:21:27;96647.28;;;30.22;30.50
21821;BME280;11073;48.586;12.066;2023-07-13T12:23:58;96642.44;;;29.75;30.34
21821;BME280;11073;48.586;12.066;2023-07-13T12:26:30;96635.78;;;29.63;30.21
21821;BME280;11073;48.586;12.066;2023-07-13T12:29:05;96633.38;;;29.50;30.70
21821;BME280;11073;48.586;12.066;2023-07-13T12:31:36;96632.38;;;29.70;30.40
21821;BME280;11073;48.586;12.066;2023-07-13T12:34:07;96633.13;;;30.30;30.25
21821;BME280;11073;48.586;12.066;2023-07-13T12:36:41;96640.13;;;30.71;30.40
21821;BME280;11073;48.586;12.066;2023-07-13T12:39:16;96643.81;;;30.95;29.91
21821;BME280;11073;48.586;12.066;2023-07-13T12:41:46;96633.53;;;31.18;28.95
21821;BME280;11073;48.586;12.066;2023-07-13T12:44:19;96629.88;;;31.53;28.94
21821;BME280;11073;48.586;12.066;2023-07-13T12:46:56;96628.31;;;31.55;28.96
21821;BME280;11073;48.586;12.066;2023-07-13T12:49:29;96630.81;;;31.80;28.78
21821;BME280;11073;48.586;12.066;2023-07-13T12:52:01;96625.47;;;31.94;28.26
21821;BME280;11073;48.586;12.066;2023-07-13T12:54:31;96615.31;;;31.44;28.58
21821;BME280;11073;48.586;12.066;2023-07-13T12:57:00;96614.19;;;30.90;28.55
21821;BME280;11073;48.586;12.066;2023-07-13T12:59:32;96615.13;;;30.63;29.18
21821;BME280;11073;48.586;12.066;2023-07-13T13:02:25;96610.13;;;30.53;29.64
21821;BME280;11073;48.586;12.066;2023-07-13T13:04:55;96612.81;;;30.65;29.45
21821;BME280;11073;48.586;12.066;2023-07-13T13:07:25;96614.47;;;31.05;29.29
21821;BME280;11073;48.586;12.066;2023-07-13T13:09:54;96615.47;;;31.51;29.38
21821;BME280;11073;48.586;12.066;2023-07-13T13:12:23;96615.38;;;31.09;28.73
21821;BME280;11073;48.586;12.066;2023-07-13T13:14:55;96613.66;;;30.85;28.50